Airfield :
LOGIN :

Register | Disclaimer

   EN    FR    IT 

 










Legend :    VFR   Marginal VFR   IFR   Intensive IFR   Very Intensive IFR
Visi :
Ceiling :
>= 8 km
>= 3000ft
5 to 8 km
1000 to 3000 ft
1500m to 5 km
500 to 1000 ft
800 to 1500m
200 to 500 ft
< 800m
< 200 ft
Symbols :   Thunderstorms  Fog  Heavy snow  Heavy precipitations  Wind > 20 kt
SIGMETs :     Misc.  Thunderstorms  Icing  Turbulence  Mountain Waves  Volcanic Ashes






- Airport Elevation : 44 ft
- IATA code : SOU


EGHI - Southampton

CURRENT METAR :
  • 291020Z 22013G23KT 190V250 6000 -RA SCT010 BKN014 14/13 Q1014

EXPIRED METARs :
  • 290950Z 21012KT 180V240 6000 -RA SCT010 BKN018 13/12 Q1014
  • 290920Z 20011KT 170V230 6000 -RA SCT010 BKN018 13/12 Q1014
  • 290850Z 21009KT 6000 -DZ FEW012 BKN032 13/12 Q1014
  • 290820Z 20006KT 7000 -DZ SCT032 13/11 Q1014
  • 290750Z 20007KT 150V230 7000 -DZ SCT032 12/11 Q1014

TAF TAF EGHI
Valid from the 29 at 09:00 until the 29 at 18:00 UTC


290808Z 2909/2918 22013KT 9999 SCT012 BKN020
TEMPO 2909/2911 7000 RA BKN012
PROB40
TEMPO 2909/2911 4000 RADZ BKN008
PROB30
TEMPO 2909/2918 23016G26KT
TEMPO 2911/2918 6000 -RADZ BKN012
ATIS : +44 23 8062 7103



MET'MAP, your aeronautical weather chart ! - Copyright ORBIFLY December 2007 - Disclaimer

ORBIFLY MET'MAP TEAM :

Programming & Development : Alexandra Zaïnal
Concept & original design : Baudouin d'Aumeries
Assistance for programming : Marc-Olivier Méhu
Technical & hardware support : Manuel Goepfert

Contact : metmap@orbifly.com




SOURCES & CREDITS :

   NOAA